首页
METAR-TAF:

METAR-TAF

机场 :

廊曼国际机场

曼谷, 泰国

纬度: 13-54-45N, 经度: 100-36-24E, 海拔: 4米

当前天气观测

该预报发布于39分钟前的00:30 UTC
风速6节,风向西北,在西北转西北之间变化
温度 28°C
湿度 84%
气压 1010 hPa
能見度: 5000
少量云层高于3000英尺
轻雾

METAR: VTBD 130030Z 31006KT 280V340 5000 BR FEW030 28/25 Q1010 NOSIG

时间: 08:09 (01:09 UTC)

预报

该预报发布于2小时和9分钟前的23:00 UTC
预报有效从13日的 00点(UTC)到 14日的 06点(UTC)
风速5节,风向西转西北
能見度: 7000
少量云层高于2500英尺
成为
从 13日的 02点(UTC)到 13日的 04点(UTC)
风速5节,风向
能见度10公里或以上
成为
从 13日的 11点(UTC)到 13日的 13点(UTC)
风速5节,风向南转西南
成为
从 13日的 16点(UTC)到 13日的 18点(UTC)
风速5节,风向西转西北
能見度: 6000

TAF: VTBD 122300Z 1300/1406 30005KT 7000 FEW025 BECMG 1302/1304 09005KT 9999 BECMG 1311/1313 21005KT BECMG 1316/1318 29005KT 6000

超过4000个机场的气象观测和天气预报(METAR&TAF报告)。

可查询的气象台以黄色和红色小点在地图上表示。

将鼠标移到小点上方,可查看气象台名称。

然后点击查看天气观测和预报。

如需切换地图:点击带黑十字的绿色按钮放大地图;点击带横线的绿色按钮缩小地图;或者点击绿色箭头查看邻近地区的地图。


METAR-TAF: